createdAt,value
2019-05-18T00:01:32.997Z,13.18
2019-05-18T00:04:00.638Z,14.40
2019-05-18T00:06:29.247Z,13.22
2019-05-18T00:08:57.006Z,14.05
2019-05-18T00:11:24.198Z,14.13
2019-05-18T00:13:53.589Z,13.45
2019-05-18T00:16:20.957Z,13.60
2019-05-18T00:18:49.058Z,12.75
2019-05-18T00:21:17.186Z,14.00
2019-05-18T00:23:46.507Z,13.48
2019-05-18T00:26:14.070Z,14.03
2019-05-18T00:28:42.675Z,13.55
2019-05-18T00:31:10.083Z,12.58
2019-05-18T00:33:37.869Z,13.05
2019-05-18T00:36:05.366Z,13.25
2019-05-18T00:38:33.325Z,15.05
2019-05-18T00:41:01.055Z,13.10
2019-05-18T00:43:28.515Z,13.45
2019-05-18T00:45:55.938Z,14.10
2019-05-18T00:48:23.405Z,14.05
2019-05-18T00:50:50.909Z,13.85
2019-05-18T00:53:18.570Z,14.28
2019-05-18T00:55:45.971Z,14.65
2019-05-18T00:58:16.352Z,14.50
2019-05-18T01:00:44.148Z,13.83
2019-05-18T01:03:11.870Z,14.65
2019-05-18T01:05:39.539Z,15.25
2019-05-18T01:08:07.091Z,14.75
2019-05-18T01:10:34.625Z,15.10
2019-05-18T01:13:02.574Z,14.25
2019-05-18T01:15:30.102Z,14.43
2019-05-18T01:18:01.450Z,14.10
2019-05-18T01:20:27.242Z,13.55
2019-05-18T01:22:54.892Z,14.73
2019-05-18T01:25:22.651Z,14.85
2019-05-18T01:27:50.394Z,16.48
2019-05-18T01:30:18.129Z,16.12
2019-05-18T01:32:45.886Z,18.07
2019-05-18T01:35:13.889Z,15.75
2019-05-18T01:37:41.242Z,14.83
2019-05-18T01:40:09.276Z,14.90
2019-05-18T01:42:36.995Z,15.03
2019-05-18T01:45:16.252Z,14.65
2019-05-18T01:47:35.657Z,14.40
2019-05-18T01:50:03.524Z,14.18
2019-05-18T01:52:31.067Z,14.65
2019-05-18T01:54:58.621Z,14.47
2019-05-18T01:57:25.978Z,15.43
2019-05-18T01:59:53.174Z,14.35
2019-05-18T02:02:21.000Z,14.58
2019-05-18T02:04:48.202Z,15.10
2019-05-18T02:07:15.580Z,13.50
2019-05-18T02:09:43.022Z,12.93
2019-05-18T02:12:10.353Z,14.40
2019-05-18T02:14:37.654Z,13.53
2019-05-18T02:17:06.101Z,13.80
2019-05-18T02:19:33.309Z,12.18
2019-05-18T02:22:01.111Z,12.90
2019-05-18T02:24:28.444Z,13.20
2019-05-18T02:26:55.944Z,13.05
2019-05-18T02:29:23.298Z,13.32
2019-05-18T02:31:51.687Z,13.15
2019-05-18T02:34:19.301Z,13.10
2019-05-18T02:36:46.745Z,13.13
2019-05-18T02:39:14.294Z,14.13
2019-05-18T02:41:41.802Z,13.65
2019-05-18T02:44:09.748Z,13.55
2019-05-18T02:46:37.439Z,12.70
2019-05-18T02:49:04.709Z,13.03
2019-05-18T02:51:32.412Z,12.55
2019-05-18T02:54:00.465Z,14.15
2019-05-18T02:56:28.877Z,13.70
2019-05-18T02:58:56.249Z,12.58
2019-05-18T03:01:23.482Z,12.88
2019-05-18T03:03:52.353Z,12.68
2019-05-18T03:06:20.211Z,13.22
2019-05-18T03:08:48.185Z,12.50
2019-05-18T03:11:15.516Z,13.75
2019-05-18T03:13:43.013Z,11.53
2019-05-18T03:16:10.359Z,12.25
2019-05-18T03:18:38.141Z,12.50
2019-05-18T03:21:05.951Z,12.20
2019-05-18T03:23:33.452Z,13.00
2019-05-18T03:26:00.601Z,12.37
2019-05-18T03:28:28.405Z,12.37
2019-05-18T03:30:55.931Z,12.23
2019-05-18T03:33:29.119Z,11.83
2019-05-18T03:35:52.840Z,11.90
2019-05-18T03:38:20.457Z,12.18
2019-05-18T03:40:48.014Z,11.00
2019-05-18T03:43:15.556Z,12.58
2019-05-18T03:45:43.009Z,11.55
2019-05-18T03:48:10.517Z,11.97
2019-05-18T03:50:37.920Z,11.70
2019-05-18T03:53:05.183Z,13.32
2019-05-18T03:55:32.763Z,12.20
2019-05-18T03:58:00.330Z,12.53
2019-05-18T04:00:27.764Z,13.13
2019-05-18T04:02:55.396Z,12.25
2019-05-18T04:05:23.327Z,13.32
2019-05-18T04:07:50.750Z,13.15
2019-05-18T04:10:25.994Z,12.60
2019-05-18T04:12:53.681Z,12.85
2019-05-18T04:15:21.072Z,12.50
2019-05-18T04:17:48.383Z,13.55
2019-05-18T04:20:16.206Z,12.50
2019-05-18T04:22:43.809Z,12.75
2019-05-18T04:25:11.363Z,12.82
2019-05-18T04:27:39.347Z,12.93
2019-05-18T04:30:07.199Z,11.53
2019-05-18T04:32:34.408Z,12.07
2019-05-18T04:35:01.931Z,11.33
2019-05-18T04:37:29.557Z,12.95
2019-05-18T04:39:56.667Z,11.90
2019-05-18T04:42:23.944Z,11.55
2019-05-18T04:44:51.252Z,10.98
2019-05-18T04:47:18.563Z,11.97
2019-05-18T04:50:02.123Z,12.85
2019-05-18T04:52:14.964Z,12.50
2019-05-18T04:54:42.298Z,12.55
2019-05-18T04:57:09.654Z,13.50
2019-05-18T04:59:36.961Z,12.25
2019-05-18T05:02:04.173Z,12.07
2019-05-18T05:04:31.816Z,14.40
2019-05-18T05:07:00.055Z,12.50
2019-05-18T05:09:27.558Z,11.00
2019-05-18T05:11:55.036Z,12.47
2019-05-18T05:14:22.366Z,12.65
2019-05-18T05:16:51.670Z,11.95
2019-05-18T05:19:19.223Z,14.40
2019-05-18T05:21:46.663Z,14.20
2019-05-18T05:24:14.044Z,12.03
2019-05-18T05:26:42.217Z,12.47
2019-05-18T05:29:09.472Z,13.48
2019-05-18T05:31:36.934Z,13.85
2019-05-18T05:34:04.561Z,13.10
2019-05-18T05:36:32.575Z,12.18
2019-05-18T05:39:00.230Z,11.75
2019-05-18T05:41:27.474Z,13.22
2019-05-18T05:43:55.318Z,12.63
2019-05-18T05:46:22.739Z,13.88
2019-05-18T05:48:49.854Z,12.53
2019-05-18T05:51:17.241Z,11.22
2019-05-18T05:53:44.605Z,13.53
2019-05-18T05:56:13.041Z,13.58
2019-05-18T05:58:40.725Z,12.45
2019-05-18T06:01:08.028Z,12.75
2019-05-18T06:03:35.623Z,13.13
2019-05-18T06:06:03.228Z,13.15
2019-05-18T06:08:30.338Z,15.20
2019-05-18T06:10:57.876Z,13.18
2019-05-18T06:13:25.292Z,13.65
2019-05-18T06:15:52.728Z,14.68
2019-05-18T06:18:20.129Z,13.80
2019-05-18T06:20:51.521Z,14.20
2019-05-18T06:23:17.509Z,14.47
2019-05-18T06:25:44.783Z,15.93
2019-05-18T06:28:12.150Z,15.40
2019-05-18T06:30:39.717Z,15.85
2019-05-18T06:33:07.116Z,16.10
2019-05-18T06:35:34.536Z,14.58
2019-05-18T06:38:01.626Z,15.03
2019-05-18T06:40:28.851Z,15.65
2019-05-18T06:42:56.931Z,15.48
2019-05-18T06:45:24.267Z,14.68
2019-05-18T06:47:51.812Z,15.18
2019-05-18T06:50:26.602Z,15.08
2019-05-18T06:52:54.316Z,15.40
2019-05-18T06:55:22.048Z,14.18
2019-05-18T06:57:50.588Z,14.55
2019-05-18T07:00:18.635Z,15.23
2019-05-18T07:02:46.047Z,14.80
2019-05-18T07:05:13.364Z,14.00
2019-05-18T07:07:41.488Z,15.18
2019-05-18T07:10:09.005Z,14.85
2019-05-18T07:12:36.256Z,15.03
2019-05-18T07:15:05.254Z,14.60
2019-05-18T07:17:34.700Z,14.87
2019-05-18T07:20:03.961Z,16.35
2019-05-18T07:22:31.394Z,15.38
2019-05-18T07:24:58.758Z,15.13
2019-05-18T07:27:26.129Z,13.90
2019-05-18T07:29:53.541Z,15.80
2019-05-18T07:32:20.788Z,14.33
2019-05-18T07:34:48.278Z,16.27
2019-05-18T07:37:15.340Z,15.40
2019-05-18T07:39:42.524Z,14.13
2019-05-18T07:42:09.789Z,12.95
2019-05-18T07:44:37.267Z,14.47
2019-05-18T07:47:04.885Z,16.30
2019-05-18T07:49:32.194Z,13.95
2019-05-18T07:51:59.360Z,14.87
2019-05-18T07:54:26.491Z,13.93
2019-05-18T07:56:53.726Z,14.53
2019-05-18T07:59:21.130Z,15.05
2019-05-18T08:01:48.476Z,13.68
2019-05-18T08:04:15.878Z,13.25
2019-05-18T08:06:43.121Z,14.15
2019-05-18T08:09:10.728Z,13.88
2019-05-18T08:11:38.059Z,13.83
2019-05-18T08:14:05.759Z,13.53
2019-05-18T08:16:32.989Z,15.05
2019-05-18T08:19:00.516Z,13.20
2019-05-18T08:21:28.930Z,13.15
2019-05-18T08:23:56.491Z,15.25
2019-05-18T08:26:24.075Z,14.28
2019-05-18T08:28:51.501Z,12.95
2019-05-18T08:31:19.198Z,13.78
2019-05-18T08:33:46.566Z,13.18
2019-05-18T08:36:13.662Z,14.38
2019-05-18T08:38:41.250Z,13.70
2019-05-18T08:41:08.697Z,13.83
2019-05-18T08:43:35.952Z,14.55
2019-05-18T08:46:03.436Z,13.43
2019-05-18T08:48:30.631Z,12.33
2019-05-18T08:50:58.015Z,13.72
2019-05-18T08:53:25.677Z,12.65
2019-05-18T08:55:52.936Z,13.75
2019-05-18T08:58:20.169Z,12.70
2019-05-18T09:00:47.615Z,12.10
2019-05-18T09:03:15.477Z,11.50
2019-05-18T09:05:43.041Z,11.30
2019-05-18T09:08:10.873Z,10.50
2019-05-18T09:10:38.259Z,11.03
2019-05-18T09:13:05.914Z,10.70
2019-05-18T09:15:33.251Z,10.98
2019-05-18T09:18:00.779Z,10.82
2019-05-18T09:20:28.373Z,10.18
2019-05-18T09:22:55.894Z,10.15
2019-05-18T09:25:22.970Z,9.53
2019-05-18T09:27:50.379Z,10.35
2019-05-18T09:30:17.891Z,11.18
2019-05-18T09:32:45.554Z,10.55
2019-05-18T09:35:13.295Z,9.00
2019-05-18T09:37:40.940Z,10.75
2019-05-18T09:40:09.170Z,10.68
2019-05-18T09:42:36.710Z,10.38
2019-05-18T09:45:05.053Z,10.78
2019-05-18T09:47:33.010Z,10.53
2019-05-18T09:50:00.655Z,9.65
2019-05-18T09:52:44.171Z,9.98
2019-05-18T09:54:57.824Z,9.70
2019-05-18T09:57:25.358Z,8.93
2019-05-18T09:59:52.664Z,9.88
2019-05-18T10:02:21.151Z,9.38
2019-05-18T10:04:48.763Z,8.93
2019-05-18T10:07:16.237Z,8.93
2019-05-18T10:09:43.842Z,9.33
2019-05-18T10:12:11.437Z,9.05
2019-05-18T10:14:39.247Z,9.08
2019-05-18T10:17:06.890Z,9.50
2019-05-18T10:19:34.329Z,8.30
2019-05-18T10:22:01.710Z,8.13
2019-05-18T10:24:29.037Z,9.05
2019-05-18T10:26:56.434Z,8.23
2019-05-18T10:29:23.855Z,8.23
2019-05-18T10:31:52.624Z,8.38
2019-05-18T10:34:21.717Z,8.30
2019-05-18T10:36:49.096Z,8.95
2019-05-18T10:39:16.707Z,8.55
2019-05-18T10:41:44.060Z,8.75
2019-05-18T10:44:11.562Z,8.60
2019-05-18T10:46:38.990Z,7.67
2019-05-18T10:49:06.557Z,7.83
2019-05-18T10:51:35.304Z,8.15
2019-05-18T10:54:03.068Z,8.70
2019-05-18T10:56:32.072Z,8.78
2019-05-18T10:58:59.635Z,8.60
2019-05-18T11:01:27.189Z,9.43
2019-05-18T11:03:54.818Z,7.83
2019-05-18T11:06:22.211Z,8.28
2019-05-18T11:08:49.687Z,9.80
2019-05-18T11:11:17.170Z,9.18
2019-05-18T11:13:44.598Z,8.20
2019-05-18T11:16:11.988Z,8.50
2019-05-18T11:18:39.478Z,8.50
2019-05-18T11:21:07.285Z,9.55
2019-05-18T11:23:43.420Z,7.97
2019-05-18T11:26:04.154Z,9.15
2019-05-18T11:28:32.133Z,9.13
2019-05-18T11:31:00.039Z,8.60
2019-05-18T11:33:27.648Z,8.55
2019-05-18T11:35:55.435Z,8.60
2019-05-18T11:38:23.240Z,8.03
2019-05-18T11:40:52.280Z,8.70
2019-05-18T11:43:19.933Z,8.00
2019-05-18T11:45:47.539Z,9.35
2019-05-18T11:48:15.168Z,8.73
2019-05-18T11:50:42.611Z,8.85
2019-05-18T11:53:11.633Z,8.15
2019-05-18T11:55:39.483Z,9.03
2019-05-18T11:58:06.902Z,9.73
2019-05-18T12:00:34.734Z,12.37
2019-05-18T12:03:02.564Z,7.75
2019-05-18T12:05:30.159Z,12.18
2019-05-18T12:07:57.822Z,11.43
2019-05-18T12:10:25.516Z,10.45
2019-05-18T12:12:53.381Z,9.55
2019-05-18T12:15:21.145Z,12.78
2019-05-18T12:17:49.010Z,10.65
2019-05-18T12:20:16.705Z,10.40
2019-05-18T12:22:44.307Z,12.13
2019-05-18T12:25:12.583Z,11.38
2019-05-18T12:27:40.214Z,10.53
2019-05-18T12:30:08.747Z,11.35
2019-05-18T12:32:36.437Z,10.50
2019-05-18T12:35:04.509Z,11.22
2019-05-18T12:37:32.211Z,11.30
2019-05-18T12:39:59.501Z,10.38
2019-05-18T12:42:27.276Z,9.20
2019-05-18T12:44:54.684Z,9.83
2019-05-18T12:47:22.146Z,10.15
2019-05-18T12:49:49.727Z,9.80
2019-05-18T12:52:17.471Z,10.08
2019-05-18T12:54:46.948Z,9.15
2019-05-18T12:57:14.158Z,10.13
2019-05-18T12:59:41.638Z,10.15
2019-05-18T13:02:09.122Z,8.03
2019-05-18T13:04:36.701Z,9.15
2019-05-18T13:07:04.226Z,8.53
2019-05-18T13:09:31.693Z,8.55
2019-05-18T13:11:59.164Z,8.68
2019-05-18T13:14:26.585Z,8.13
2019-05-18T13:16:54.204Z,7.47
2019-05-18T13:19:21.774Z,7.22
2019-05-18T13:21:49.345Z,7.58
2019-05-18T13:24:16.905Z,7.22
2019-05-18T13:26:44.249Z,6.80
2019-05-18T13:29:11.376Z,8.48
2019-05-18T13:31:38.887Z,7.10
2019-05-18T13:34:07.087Z,7.85
2019-05-18T13:36:34.569Z,6.37
2019-05-18T13:39:02.237Z,6.40
2019-05-18T13:41:31.328Z,6.70
2019-05-18T13:43:58.425Z,6.83
2019-05-18T13:46:25.822Z,6.83
2019-05-18T13:48:54.218Z,6.03
2019-05-18T13:51:21.689Z,6.10
2019-05-18T13:53:48.999Z,5.58
2019-05-18T13:56:16.690Z,7.22
2019-05-18T13:58:44.142Z,6.37
2019-05-18T14:01:11.904Z,5.95
2019-05-18T14:03:39.225Z,6.83
2019-05-18T14:06:06.496Z,6.45
2019-05-18T14:08:33.999Z,6.90
2019-05-18T14:11:01.257Z,6.35
2019-05-18T14:13:29.761Z,6.72
2019-05-18T14:15:56.872Z,6.45
2019-05-18T14:18:24.189Z,6.95
2019-05-18T14:20:51.592Z,6.35
2019-05-18T14:23:18.839Z,7.00
2019-05-18T14:25:46.597Z,6.53
2019-05-18T14:28:13.972Z,7.12
2019-05-18T14:30:41.533Z,7.70
2019-05-18T14:33:10.576Z,6.90
2019-05-18T14:35:38.335Z,7.03
2019-05-18T14:38:07.355Z,6.22
2019-05-18T14:40:36.770Z,6.00
2019-05-18T14:43:04.653Z,7.00
2019-05-18T14:45:32.103Z,6.83
2019-05-18T14:47:59.614Z,6.08
2019-05-18T14:50:27.098Z,6.83
2019-05-18T14:52:55.942Z,5.62
2019-05-18T14:55:33.251Z,6.12
2019-05-18T14:57:52.480Z,6.37
2019-05-18T15:00:20.095Z,6.25
2019-05-18T15:02:47.949Z,5.53
2019-05-18T15:05:15.628Z,6.03
2019-05-18T15:07:43.175Z,6.40
2019-05-18T15:10:11.284Z,6.22
2019-05-18T15:12:39.027Z,6.50
2019-05-18T15:15:07.438Z,5.85
2019-05-18T15:17:35.021Z,6.53
2019-05-18T15:20:04.166Z,5.80
2019-05-18T15:22:32.795Z,6.50
2019-05-18T15:25:00.577Z,6.35
2019-05-18T15:27:28.496Z,6.62
2019-05-18T15:29:56.075Z,5.75
2019-05-18T15:32:23.579Z,5.55
2019-05-18T15:34:51.212Z,5.90
2019-05-18T15:37:18.940Z,5.95
2019-05-18T15:39:46.459Z,6.37
2019-05-18T15:42:13.871Z,6.62
2019-05-18T15:44:41.646Z,6.22
2019-05-18T15:47:09.015Z,5.80
2019-05-18T15:49:36.942Z,6.97
2019-05-18T15:52:04.472Z,6.90
2019-05-18T15:54:36.102Z,6.45
2019-05-18T15:57:02.878Z,6.83
2019-05-18T15:59:30.289Z,6.62
2019-05-18T16:01:57.639Z,7.28
2019-05-18T16:04:25.403Z,8.90
2019-05-18T16:06:53.054Z,8.63
2019-05-18T16:09:20.707Z,7.60
2019-05-18T16:11:48.198Z,7.42
2019-05-18T16:14:15.780Z,6.97
2019-05-18T16:16:43.589Z,7.22
2019-05-18T16:19:11.237Z,6.37
2019-05-18T16:21:38.793Z,7.60
2019-05-18T16:24:06.333Z,7.45
2019-05-18T16:26:33.658Z,6.85
2019-05-18T16:29:02.516Z,7.15
2019-05-18T16:31:31.454Z,7.92
2019-05-18T16:33:59.290Z,8.33
2019-05-18T16:36:28.282Z,7.95
2019-05-18T16:38:56.016Z,7.47
2019-05-18T16:41:23.396Z,7.05
2019-05-18T16:43:51.111Z,7.95
2019-05-18T16:46:19.050Z,6.55
2019-05-18T16:48:46.471Z,6.70
2019-05-18T16:51:13.989Z,7.20
2019-05-18T16:53:42.153Z,7.05
2019-05-18T16:56:09.680Z,6.65
2019-05-18T16:58:37.232Z,6.62
2019-05-18T17:01:04.921Z,7.00
2019-05-18T17:03:32.970Z,7.03
2019-05-18T17:06:00.759Z,7.22
2019-05-18T17:08:29.329Z,7.22
2019-05-18T17:10:56.742Z,7.22
2019-05-18T17:13:24.322Z,7.15
2019-05-18T17:15:52.168Z,7.40
2019-05-18T17:18:19.481Z,7.47
2019-05-18T17:20:46.775Z,7.37
2019-05-18T17:23:14.121Z,7.78
2019-05-18T17:25:41.832Z,7.95
2019-05-18T17:28:09.249Z,8.93
2019-05-18T17:30:36.412Z,8.05
2019-05-18T17:33:04.522Z,8.63
2019-05-18T17:35:31.955Z,9.08
2019-05-18T17:37:59.389Z,8.48
2019-05-18T17:40:28.326Z,8.40
2019-05-18T17:42:55.889Z,8.03
2019-05-18T17:45:23.509Z,7.10
2019-05-18T17:47:51.460Z,7.75
2019-05-18T17:50:19.099Z,8.18
2019-05-18T17:52:46.337Z,8.25
2019-05-18T17:55:16.315Z,8.63
2019-05-18T17:57:43.592Z,8.10
2019-05-18T18:00:12.111Z,7.90
2019-05-18T18:02:39.933Z,8.13
2019-05-18T18:05:08.481Z,7.53
2019-05-18T18:07:37.118Z,7.75
2019-05-18T18:10:05.614Z,8.40
2019-05-18T18:12:33.379Z,7.28
2019-05-18T18:15:01.255Z,7.17
2019-05-18T18:17:29.996Z,8.10
2019-05-18T18:19:57.883Z,7.55
2019-05-18T18:22:25.296Z,8.43
2019-05-18T18:24:52.727Z,7.25
2019-05-18T18:27:25.177Z,8.30
2019-05-18T18:29:49.307Z,8.95
2019-05-18T18:32:17.086Z,8.58
2019-05-18T18:34:44.510Z,8.68
2019-05-18T18:37:12.350Z,8.43
2019-05-18T18:39:39.920Z,8.30
2019-05-18T18:42:07.905Z,8.05
2019-05-18T18:44:35.192Z,9.18
2019-05-18T18:47:02.924Z,8.70
2019-05-18T18:49:30.513Z,8.45
2019-05-18T18:51:58.541Z,11.33
2019-05-18T18:54:26.176Z,9.30
2019-05-18T18:56:53.948Z,10.45
2019-05-18T18:59:21.755Z,10.95
2019-05-18T19:01:49.364Z,8.43
2019-05-18T19:04:17.084Z,8.83
2019-05-18T19:06:44.811Z,8.15
2019-05-18T19:09:12.166Z,8.80
2019-05-18T19:11:39.770Z,11.53
2019-05-18T19:14:07.587Z,9.20
2019-05-18T19:16:35.890Z,9.80
2019-05-18T19:19:03.487Z,10.98
2019-05-18T19:21:31.305Z,11.10
2019-05-18T19:24:01.495Z,10.55
2019-05-18T19:26:29.381Z,8.63
2019-05-18T19:28:58.484Z,8.70
2019-05-18T19:31:25.970Z,8.43
2019-05-18T19:33:53.644Z,8.23
2019-05-18T19:36:21.198Z,7.97
2019-05-18T19:38:49.071Z,7.75
2019-05-18T19:41:16.592Z,8.38
2019-05-18T19:43:44.053Z,8.73
2019-05-18T19:46:11.977Z,8.28
2019-05-18T19:48:39.646Z,7.95
2019-05-18T19:51:07.446Z,9.13
2019-05-18T19:53:35.659Z,9.63
2019-05-18T19:57:02.832Z,168.62
2019-05-18T19:59:30.835Z,160.93
2019-05-18T20:01:58.394Z,139.20
2019-05-18T20:04:26.090Z,148.85
2019-05-18T20:06:53.854Z,141.30
2019-05-18T20:09:22.144Z,139.43
2019-05-18T20:11:49.935Z,128.12
2019-05-18T20:14:19.088Z,134.18
2019-05-18T20:16:47.443Z,129.75
2019-05-18T20:19:15.944Z,132.18
2019-05-18T20:21:53.740Z,126.33
2019-05-18T20:24:24.957Z,131.70
2019-05-18T20:26:56.747Z,137.17
2019-05-18T20:29:27.804Z,126.87
2019-05-18T20:31:59.167Z,127.10
2019-05-18T20:34:30.341Z,131.83
2019-05-18T20:37:01.209Z,128.10
2019-05-18T20:39:32.379Z,158.27
2019-05-18T20:42:03.309Z,155.40
2019-05-18T20:44:34.389Z,157.03
2019-05-18T20:47:05.631Z,125.87
2019-05-18T20:49:36.905Z,131.90
2019-05-18T20:52:08.152Z,136.30
2019-05-18T20:54:39.274Z,195.27
2019-05-18T20:57:10.393Z,197.57
2019-05-18T20:59:41.547Z,200.23
2019-05-18T21:02:12.896Z,204.53
2019-05-18T21:04:43.969Z,211.53
2019-05-18T21:07:15.155Z,193.77
2019-05-18T21:09:46.486Z,196.00
2019-05-18T21:12:17.779Z,205.30
2019-05-18T21:14:48.859Z,197.10
2019-05-18T21:17:20.253Z,219.63
2019-05-18T21:19:51.373Z,211.43
2019-05-18T21:22:22.475Z,210.10
2019-05-18T21:24:53.612Z,133.73
2019-05-18T21:27:24.623Z,204.43
2019-05-18T21:29:55.655Z,189.33
2019-05-18T21:32:27.179Z,234.17
2019-05-18T21:34:59.248Z,172.93
2019-05-18T21:37:30.862Z,166.53
2019-05-18T21:40:01.944Z,195.53
2019-05-18T21:42:32.949Z,218.13
2019-05-18T21:45:06.942Z,198.93
2019-05-18T21:47:38.230Z,199.47
2019-05-18T21:50:09.778Z,207.20
2019-05-18T21:52:42.152Z,198.70
2019-05-18T21:55:13.418Z,173.27
2019-05-18T21:57:44.698Z,179.63
2019-05-18T22:00:17.890Z,178.43
2019-05-18T22:02:50.700Z,203.37
2019-05-18T22:05:21.976Z,193.57
2019-05-18T22:07:53.277Z,193.30
2019-05-18T22:10:26.170Z,163.47
2019-05-18T22:12:58.152Z,200.37
2019-05-18T22:15:29.313Z,146.47
2019-05-18T22:18:03.316Z,49.40
2019-05-18T22:20:43.685Z,12.50
2019-05-18T22:23:10.723Z,10.83
2019-05-18T22:25:42.793Z,11.20
2019-05-18T22:28:13.782Z,11.83
2019-05-18T22:30:44.842Z,28.63
2019-05-18T22:33:15.975Z,151.67
2019-05-18T22:35:47.106Z,10.50
2019-05-18T22:38:18.537Z,11.53
2019-05-18T22:40:49.766Z,11.57
2019-05-18T22:43:21.046Z,11.60
2019-05-18T22:45:52.044Z,11.93
2019-05-18T22:48:23.204Z,11.60
2019-05-18T22:50:54.534Z,11.33
2019-05-18T22:53:25.781Z,11.23
2019-05-18T22:55:56.929Z,11.50
2019-05-18T22:58:27.907Z,12.33
2019-05-18T23:00:58.932Z,11.67
2019-05-18T23:03:30.146Z,12.07
2019-05-18T23:06:01.190Z,11.80
2019-05-18T23:08:32.274Z,12.30
2019-05-18T23:11:03.253Z,11.90
2019-05-18T23:13:34.691Z,11.70
2019-05-18T23:16:05.883Z,11.83
2019-05-18T23:18:37.031Z,12.67
2019-05-18T23:21:08.346Z,11.63
2019-05-18T23:23:39.257Z,11.93
2019-05-18T23:26:11.711Z,13.00
2019-05-18T23:28:42.740Z,11.60
2019-05-18T23:31:14.004Z,11.40
2019-05-18T23:33:44.790Z,11.97
2019-05-18T23:36:15.889Z,12.33
2019-05-18T23:38:46.853Z,12.00
2019-05-18T23:41:17.807Z,11.73
2019-05-18T23:43:48.712Z,12.33
2019-05-18T23:46:19.642Z,13.07
2019-05-18T23:48:50.780Z,12.67
2019-05-18T23:51:21.498Z,13.33
2019-05-18T23:53:53.885Z,12.20
2019-05-18T23:56:25.582Z,12.97
2019-05-18T23:58:56.327Z,12.60
